sensor_id;sensor_type;location;lat;lon;timestamp;pressure;altitude;pressure_sealevel;temperature;humidity
47811;BME280;33575;52.600;7.318;2023-08-30T00:01:30;100624.54;;;16.48;90.88
47811;BME280;33575;52.600;7.318;2023-08-30T00:04:01;100623.77;;;16.48;90.70
47811;BME280;33575;52.600;7.318;2023-08-30T00:06:31;100622.99;;;16.43;91.31
47811;BME280;33575;52.600;7.318;2023-08-30T00:09:02;100621.09;;;16.41;91.16
47811;BME280;33575;52.600;7.318;2023-08-30T00:11:32;100618.57;;;16.40;91.04
47811;BME280;33575;52.600;7.318;2023-08-30T00:14:03;100616.52;;;16.40;90.95
47811;BME280;33575;52.600;7.318;2023-08-30T00:16:33;100617.51;;;16.35;91.21
47811;BME280;33575;52.600;7.318;2023-08-30T00:19:03;100619.60;;;16.32;91.03
47811;BME280;33575;52.600;7.318;2023-08-30T00:21:33;100618.61;;;16.29;91.23
47811;BME280;33575;52.600;7.318;2023-08-30T00:24:04;100616.06;;;16.27;91.06
47811;BME280;33575;52.600;7.318;2023-08-30T00:26:34;100613.27;;;16.24;91.19
47811;BME280;33575;52.600;7.318;2023-08-30T00:29:04;100615.54;;;16.19;91.07
47811;BME280;33575;52.600;7.318;2023-08-30T00:31:34;100618.90;;;16.17;91.21
47811;BME280;33575;52.600;7.318;2023-08-30T00:34:05;100620.55;;;16.16;91.17
47811;BME280;33575;52.600;7.318;2023-08-30T00:36:35;100618.49;;;16.15;91.03
47811;BME280;33575;52.600;7.318;2023-08-30T00:39:06;100616.17;;;16.09;91.21
47811;BME280;33575;52.600;7.318;2023-08-30T00:41:36;100615.28;;;16.07;90.88
47811;BME280;33575;52.600;7.318;2023-08-30T00:44:06;100612.00;;;16.05;90.77
47811;BME280;33575;52.600;7.318;2023-08-30T00:46:37;100612.32;;;16.03;90.78
47811;BME280;33575;52.600;7.318;2023-08-30T00:49:07;100605.41;;;15.99;90.75
47811;BME280;33575;52.600;7.318;2023-08-30T00:51:37;100607.19;;;15.95;90.56
47811;BME280;33575;52.600;7.318;2023-08-30T00:54:08;100606.46;;;15.93;90.47
47811;BME280;33575;52.600;7.318;2023-08-30T00:56:38;100605.46;;;15.89;90.29
47811;BME280;33575;52.600;7.318;2023-08-30T00:59:09;100604.18;;;15.84;90.24
47811;BME280;33575;52.600;7.318;2023-08-30T01:01:40;100603.84;;;15.81;90.27
47811;BME280;33575;52.600;7.318;2023-08-30T01:04:09;100603.09;;;15.74;90.26
47811;BME280;33575;52.600;7.318;2023-08-30T01:06:39;100605.79;;;15.72;90.15
47811;BME280;33575;52.600;7.318;2023-08-30T01:09:10;100608.53;;;15.67;90.25
47811;BME280;33575;52.600;7.318;2023-08-30T01:11:46;100603.16;;;15.62;90.26
47811;BME280;33575;52.600;7.318;2023-08-30T01:14:15;100601.36;;;15.59;90.06
47811;BME280;33575;52.600;7.318;2023-08-30T01:16:40;100604.76;;;15.56;90.04
47811;BME280;33575;52.600;7.318;2023-08-30T01:19:25;100604.48;;;15.50;90.18
47811;BME280;33575;52.600;7.318;2023-08-30T01:21:48;100603.43;;;15.47;90.25
47811;BME280;33575;52.600;7.318;2023-08-30T01:24:14;100600.02;;;15.42;90.29
47811;BME280;33575;52.600;7.318;2023-08-30T01:26:48;100597.75;;;15.31;91.40
47811;BME280;33575;52.600;7.318;2023-08-30T01:29:13;100595.64;;;15.31;90.99
47811;BME280;33575;52.600;7.318;2023-08-30T01:31:44;100591.48;;;15.31;90.95
47811;BME280;33575;52.600;7.318;2023-08-30T01:34:14;100593.85;;;15.31;91.05
47811;BME280;33575;52.600;7.318;2023-08-30T01:36:44;100593.27;;;15.23;91.58
47811;BME280;33575;52.600;7.318;2023-08-30T01:39:14;100592.89;;;15.22;91.62
47811;BME280;33575;52.600;7.318;2023-08-30T01:41:45;100591.03;;;15.23;91.43
47811;BME280;33575;52.600;7.318;2023-08-30T01:44:15;100590.63;;;15.19;91.78
47811;BME280;33575;52.600;7.318;2023-08-30T01:46:46;100590.92;;;15.12;91.93
47811;BME280;33575;52.600;7.318;2023-08-30T01:49:15;100589.90;;;15.14;91.79
47811;BME280;33575;52.600;7.318;2023-08-30T01:51:45;100588.80;;;15.14;91.91
47811;BME280;33575;52.600;7.318;2023-08-30T01:54:18;100586.12;;;15.13;92.08
47811;BME280;33575;52.600;7.318;2023-08-30T01:56:46;100582.16;;;15.04;92.16
47811;BME280;33575;52.600;7.318;2023-08-30T01:59:16;100584.28;;;14.97;92.55
47811;BME280;33575;52.600;7.318;2023-08-30T02:01:47;100586.00;;;14.90;92.82
47811;BME280;33575;52.600;7.318;2023-08-30T02:04:17;100587.23;;;14.93;92.54
47811;BME280;33575;52.600;7.318;2023-08-30T02:06:53;100585.22;;;14.96;92.74
47811;BME280;33575;52.600;7.318;2023-08-30T02:09:23;100583.89;;;14.96;92.43
47811;BME280;33575;52.600;7.318;2023-08-30T02:11:50;100581.38;;;14.99;92.31
47811;BME280;33575;52.600;7.318;2023-08-30T02:14:20;100581.18;;;14.99;92.09
47811;BME280;33575;52.600;7.318;2023-08-30T02:16:49;100580.71;;;15.00;91.93
47811;BME280;33575;52.600;7.318;2023-08-30T02:19:19;100581.50;;;15.00;92.01
47811;BME280;33575;52.600;7.318;2023-08-30T02:21:50;100580.91;;;14.97;91.98
47811;BME280;33575;52.600;7.318;2023-08-30T02:24:20;100584.25;;;14.94;92.06
47811;BME280;33575;52.600;7.318;2023-08-30T02:26:51;100585.74;;;14.92;91.95
47811;BME280;33575;52.600;7.318;2023-08-30T02:29:22;100582.09;;;14.87;92.17
47811;BME280;33575;52.600;7.318;2023-08-30T02:44:34;100582.91;;;14.86;92.11
47811;BME280;33575;52.600;7.318;2023-08-30T02:46:54;100581.56;;;14.88;92.12
47811;BME280;33575;52.600;7.318;2023-08-30T02:49:24;100581.03;;;14.89;91.96
47811;BME280;33575;52.600;7.318;2023-08-30T02:51:54;100580.14;;;14.88;91.85
47811;BME280;33575;52.600;7.318;2023-08-30T02:54:24;100574.93;;;14.85;91.78
47811;BME280;33575;52.600;7.318;2023-08-30T02:56:55;100569.14;;;14.81;91.68
47811;BME280;33575;52.600;7.318;2023-08-30T02:59:25;100566.92;;;14.73;91.67
47811;BME280;33575;52.600;7.318;2023-08-30T03:01:56;100563.13;;;14.71;91.80
47811;BME280;33575;52.600;7.318;2023-08-30T03:04:27;100559.79;;;14.72;91.57
47811;BME280;33575;52.600;7.318;2023-08-30T03:06:57;100558.04;;;14.73;91.36
47811;BME280;33575;52.600;7.318;2023-08-30T03:09:28;100555.34;;;14.70;91.37
47811;BME280;33575;52.600;7.318;2023-08-30T03:11:58;100555.88;;;14.67;91.18
47811;BME280;33575;52.600;7.318;2023-08-30T03:14:28;100554.68;;;14.68;91.10
47811;BME280;33575;52.600;7.318;2023-08-30T03:16:59;100554.47;;;14.69;90.86
47811;BME280;33575;52.600;7.318;2023-08-30T03:19:29;100556.05;;;14.68;90.60
47811;BME280;33575;52.600;7.318;2023-08-30T03:21:59;100554.58;;;14.63;90.55
47811;BME280;33575;52.600;7.318;2023-08-30T03:24:30;100555.15;;;14.60;90.37
47811;BME280;33575;52.600;7.318;2023-08-30T03:27:00;100551.58;;;14.57;90.28
47811;BME280;33575;52.600;7.318;2023-08-30T03:29:30;100547.04;;;14.51;90.12
47811;BME280;33575;52.600;7.318;2023-08-30T03:32:01;100542.15;;;14.44;90.13
47811;BME280;33575;52.600;7.318;2023-08-30T03:34:32;100536.79;;;14.38;90.20
47811;BME280;33575;52.600;7.318;2023-08-30T03:37:02;100533.83;;;14.34;90.25
47811;BME280;33575;52.600;7.318;2023-08-30T03:39:32;100534.70;;;14.29;90.33
47811;BME280;33575;52.600;7.318;2023-08-30T03:42:03;100536.85;;;14.23;90.52
47811;BME280;33575;52.600;7.318;2023-08-30T03:44:33;100536.10;;;14.21;90.46
47811;BME280;33575;52.600;7.318;2023-08-30T03:47:04;100536.46;;;14.18;90.50
47811;BME280;33575;52.600;7.318;2023-08-30T03:49:34;100536.02;;;14.18;90.29
47811;BME280;33575;52.600;7.318;2023-08-30T03:52:05;100539.59;;;14.16;90.28
47811;BME280;33575;52.600;7.318;2023-08-30T03:54:35;100537.18;;;14.08;90.58
47811;BME280;33575;52.600;7.318;2023-08-30T03:57:05;100533.78;;;14.05;90.55
47811;BME280;33575;52.600;7.318;2023-08-30T03:59:36;100529.34;;;14.03;90.57
47811;BME280;33575;52.600;7.318;2023-08-30T04:02:06;100521.51;;;14.00;90.60
47811;BME280;33575;52.600;7.318;2023-08-30T04:04:37;100517.14;;;13.96;90.51
47811;BME280;33575;52.600;7.318;2023-08-30T04:07:08;100512.46;;;13.90;90.56
47811;BME280;33575;52.600;7.318;2023-08-30T04:09:38;100509.27;;;13.89;90.48
47811;BME280;33575;52.600;7.318;2023-08-30T04:12:09;100507.08;;;13.88;90.48
47811;BME280;33575;52.600;7.318;2023-08-30T04:14:39;100504.72;;;13.88;90.38
47811;BME280;33575;52.600;7.318;2023-08-30T04:17:10;100502.07;;;13.88;90.46
47811;BME280;33575;52.600;7.318;2023-08-30T04:19:40;100499.72;;;13.87;90.30
47811;BME280;33575;52.600;7.318;2023-08-30T04:22:11;100495.02;;;13.86;90.18
47811;BME280;33575;52.600;7.318;2023-08-30T04:24:41;100499.94;;;13.80;90.28
47811;BME280;33575;52.600;7.318;2023-08-30T04:27:11;100500.82;;;13.72;90.21
47811;BME280;33575;52.600;7.318;2023-08-30T04:29:41;100504.41;;;13.65;90.34
47811;BME280;33575;52.600;7.318;2023-08-30T04:32:12;100505.01;;;13.59;90.50
47811;BME280;33575;52.600;7.318;2023-08-30T04:34:42;100505.18;;;13.54;90.82
47811;BME280;33575;52.600;7.318;2023-08-30T04:37:13;100499.77;;;13.54;90.89
47811;BME280;33575;52.600;7.318;2023-08-30T04:39:47;100499.56;;;13.53;90.82
47811;BME280;33575;52.600;7.318;2023-08-30T04:42:13;100497.67;;;13.53;90.78
47811;BME280;33575;52.600;7.318;2023-08-30T04:44:44;100493.92;;;13.53;90.77
47811;BME280;33575;52.600;7.318;2023-08-30T04:47:15;100491.66;;;13.52;90.82
47811;BME280;33575;52.600;7.318;2023-08-30T04:49:50;100488.46;;;13.50;90.83
47811;BME280;33575;52.600;7.318;2023-08-30T04:52:15;100484.63;;;13.49;90.69
47811;BME280;33575;52.600;7.318;2023-08-30T04:54:46;100480.18;;;13.48;90.74
47811;BME280;33575;52.600;7.318;2023-08-30T04:57:17;100481.19;;;13.50;90.79
47811;BME280;33575;52.600;7.318;2023-08-30T04:59:47;100478.33;;;13.51;90.86
47811;BME280;33575;52.600;7.318;2023-08-30T05:02:17;100480.73;;;13.53;90.83
47811;BME280;33575;52.600;7.318;2023-08-30T05:04:47;100481.93;;;13.53;90.86
47811;BME280;33575;52.600;7.318;2023-08-30T05:07:18;100477.89;;;13.47;91.01
47811;BME280;33575;52.600;7.318;2023-08-30T05:09:49;100477.42;;;13.45;91.11
47811;BME280;33575;52.600;7.318;2023-08-30T05:12:20;100473.12;;;13.44;91.28
47811;BME280;33575;52.600;7.318;2023-08-30T05:14:50;100469.97;;;13.44;91.40
47811;BME280;33575;52.600;7.318;2023-08-30T05:17:20;100465.69;;;13.45;91.59
47811;BME280;33575;52.600;7.318;2023-08-30T05:19:51;100461.69;;;13.47;91.62
47811;BME280;33575;52.600;7.318;2023-08-30T05:22:21;100459.33;;;13.47;91.81
47811;BME280;33575;52.600;7.318;2023-08-30T05:24:51;100461.14;;;13.46;92.07
47811;BME280;33575;52.600;7.318;2023-08-30T05:27:21;100459.28;;;13.47;92.26
47811;BME280;33575;52.600;7.318;2023-08-30T05:29:52;100456.33;;;13.49;92.16
47811;BME280;33575;52.600;7.318;2023-08-30T05:32:22;100458.73;;;13.51;92.12
47811;BME280;33575;52.600;7.318;2023-08-30T05:34:53;100457.70;;;13.52;92.37
47811;BME280;33575;52.600;7.318;2023-08-30T05:37:23;100457.04;;;13.54;92.18
47811;BME280;33575;52.600;7.318;2023-08-30T05:39:54;100460.36;;;13.56;92.16
47811;BME280;33575;52.600;7.318;2023-08-30T05:42:24;100457.80;;;13.57;92.19
47811;BME280;33575;52.600;7.318;2023-08-30T05:44:54;100457.40;;;13.59;92.30
47811;BME280;33575;52.600;7.318;2023-08-30T05:47:25;100455.71;;;13.61;92.18
47811;BME280;33575;52.600;7.318;2023-08-30T05:49:55;100453.66;;;13.61;92.19
47811;BME280;33575;52.600;7.318;2023-08-30T05:52:26;100449.09;;;13.65;92.27
47811;BME280;33575;52.600;7.318;2023-08-30T05:54:57;100446.24;;;13.66;92.40
47811;BME280;33575;52.600;7.318;2023-08-30T05:57:27;100441.50;;;13.68;92.41
47811;BME280;33575;52.600;7.318;2023-08-30T05:59:58;100437.86;;;13.71;92.44
47811;BME280;33575;52.600;7.318;2023-08-30T06:02:28;100436.43;;;13.74;92.65
47811;BME280;33575;52.600;7.318;2023-08-30T06:04:58;100436.31;;;13.79;92.61
47811;BME280;33575;52.600;7.318;2023-08-30T06:07:29;100439.36;;;13.84;92.86
47811;BME280;33575;52.600;7.318;2023-08-30T06:10:00;100438.92;;;13.86;93.12
47811;BME280;33575;52.600;7.318;2023-08-30T06:12:29;100439.70;;;13.91;93.12
47811;BME280;33575;52.600;7.318;2023-08-30T06:15:00;100437.86;;;13.96;93.21
47811;BME280;33575;52.600;7.318;2023-08-30T06:17:30;100438.78;;;14.01;93.16
47811;BME280;33575;52.600;7.318;2023-08-30T06:20:01;100433.95;;;14.05;93.19
47811;BME280;33575;52.600;7.318;2023-08-30T06:22:32;100433.68;;;14.10;93.25
47811;BME280;33575;52.600;7.318;2023-08-30T06:25:02;100431.29;;;14.13;93.36
47811;BME280;33575;52.600;7.318;2023-08-30T06:27:32;100432.56;;;14.16;93.48
47811;BME280;33575;52.600;7.318;2023-08-30T06:30:03;100432.33;;;14.21;93.35
47811;BME280;33575;52.600;7.318;2023-08-30T06:32:33;100434.42;;;14.25;93.44
47811;BME280;33575;52.600;7.318;2023-08-30T06:35:04;100428.69;;;14.29;93.66
47811;BME280;33575;52.600;7.318;2023-08-30T06:37:34;100424.25;;;14.33;93.65
47811;BME280;33575;52.600;7.318;2023-08-30T06:40:06;100421.58;;;14.40;93.79
47811;BME280;33575;52.600;7.318;2023-08-30T06:42:35;100419.72;;;14.45;93.52
47811;BME280;33575;52.600;7.318;2023-08-30T06:45:06;100417.92;;;14.50;93.89
47811;BME280;33575;52.600;7.318;2023-08-30T06:47:35;100419.39;;;14.56;93.70
47811;BME280;33575;52.600;7.318;2023-08-30T06:50:07;100422.50;;;14.59;94.17
47811;BME280;33575;52.600;7.318;2023-08-30T06:52:36;100416.48;;;14.61;94.01
47811;BME280;33575;52.600;7.318;2023-08-30T06:55:06;100415.53;;;14.68;93.80
47811;BME280;33575;52.600;7.318;2023-08-30T06:57:37;100413.39;;;14.72;93.97
47811;BME280;33575;52.600;7.318;2023-08-30T07:00:08;100409.12;;;14.67;95.14
47811;BME280;33575;52.600;7.318;2023-08-30T07:02:38;100407.36;;;14.73;95.05
47811;BME280;33575;52.600;7.318;2023-08-30T07:05:08;100407.20;;;14.70;94.47
47811;BME280;33575;52.600;7.318;2023-08-30T07:07:39;100403.78;;;14.68;94.49
47811;BME280;33575;52.600;7.318;2023-08-30T07:10:09;100396.94;;;14.74;94.45
47811;BME280;33575;52.600;7.318;2023-08-30T07:12:40;100392.49;;;14.74;94.45
47811;BME280;33575;52.600;7.318;2023-08-30T07:15:10;100391.35;;;14.80;94.56
47811;BME280;33575;52.600;7.318;2023-08-30T07:17:45;100389.03;;;14.90;94.28
47811;BME280;33575;52.600;7.318;2023-08-30T07:20:11;100385.16;;;15.03;94.01
47811;BME280;33575;52.600;7.318;2023-08-30T07:22:40;100380.06;;;15.14;94.32
47811;BME280;33575;52.600;7.318;2023-08-30T07:25:11;100379.09;;;15.22;94.36
47811;BME280;33575;52.600;7.318;2023-08-30T07:27:41;100379.39;;;15.27;94.72
47811;BME280;33575;52.600;7.318;2023-08-30T07:30:12;100383.45;;;15.36;94.29
47811;BME280;33575;52.600;7.318;2023-08-30T07:32:42;100384.65;;;15.47;94.00
47811;BME280;33575;52.600;7.318;2023-08-30T07:35:16;100382.59;;;15.56;93.92
47811;BME280;33575;52.600;7.318;2023-08-30T07:37:42;100383.75;;;15.65;93.99
47811;BME280;33575;52.600;7.318;2023-08-30T07:40:13;100382.92;;;15.73;93.61
47811;BME280;33575;52.600;7.318;2023-08-30T07:42:43;100382.03;;;15.77;93.40
47811;BME280;33575;52.600;7.318;2023-08-30T07:45:13;100383.41;;;15.84;93.50
47811;BME280;33575;52.600;7.318;2023-08-30T07:47:43;100385.61;;;15.92;93.55
47811;BME280;33575;52.600;7.318;2023-08-30T07:50:13;100386.16;;;16.02;93.35
47811;BME280;33575;52.600;7.318;2023-08-30T07:52:47;100387.57;;;16.07;93.15
47811;BME280;33575;52.600;7.318;2023-08-30T07:55:14;100386.17;;;16.13;93.27
47811;BME280;33575;52.600;7.318;2023-08-30T07:57:44;100385.84;;;16.21;93.20
47811;BME280;33575;52.600;7.318;2023-08-30T08:00:14;100380.71;;;16.28;92.51
47811;BME280;33575;52.600;7.318;2023-08-30T08:02:45;100380.79;;;16.30;92.10
47811;BME280;33575;52.600;7.318;2023-08-30T08:05:15;100379.91;;;16.39;92.42
47811;BME280;33575;52.600;7.318;2023-08-30T08:07:45;100378.62;;;16.48;91.90
47811;BME280;33575;52.600;7.318;2023-08-30T08:10:16;100375.21;;;16.56;91.48
47811;BME280;33575;52.600;7.318;2023-08-30T08:12:46;100377.21;;;16.62;91.40
47811;BME280;33575;52.600;7.318;2023-08-30T08:15:16;100379.51;;;16.70;91.36
47811;BME280;33575;52.600;7.318;2023-08-30T08:17:47;100381.59;;;16.81;91.07
47811;BME280;33575;52.600;7.318;2023-08-30T08:20:17;100379.79;;;16.90;91.23
47811;BME280;33575;52.600;7.318;2023-08-30T08:22:48;100381.11;;;16.94;90.14
47811;BME280;33575;52.600;7.318;2023-08-30T08:25:18;100381.08;;;16.97;90.47
47811;BME280;33575;52.600;7.318;2023-08-30T08:27:48;100378.11;;;16.99;90.18
47811;BME280;33575;52.600;7.318;2023-08-30T08:30:19;100376.01;;;16.96;90.45
47811;BME280;33575;52.600;7.318;2023-08-30T08:32:49;100371.56;;;16.98;90.05
47811;BME280;33575;52.600;7.318;2023-08-30T08:35:19;100372.49;;;17.00;90.17
47811;BME280;33575;52.600;7.318;2023-08-30T08:37:49;100373.77;;;17.02;90.11
47811;BME280;33575;52.600;7.318;2023-08-30T08:40:25;100369.86;;;17.04;89.86
47811;BME280;33575;52.600;7.318;2023-08-30T08:42:50;100366.58;;;17.09;89.87
47811;BME280;33575;52.600;7.318;2023-08-30T08:45:21;100365.78;;;17.10;89.60
47811;BME280;33575;52.600;7.318;2023-08-30T08:47:51;100363.57;;;17.15;89.69
47811;BME280;33575;52.600;7.318;2023-08-30T08:50:21;100363.67;;;17.19;89.44
47811;BME280;33575;52.600;7.318;2023-08-30T08:52:56;100363.49;;;17.20;89.73
47811;BME280;33575;52.600;7.318;2023-08-30T08:55:21;100366.04;;;17.24;89.82
47811;BME280;33575;52.600;7.318;2023-08-30T08:57:53;100370.03;;;17.26;89.27
47811;BME280;33575;52.600;7.318;2023-08-30T09:00:22;100370.45;;;17.29;89.14
47811;BME280;33575;52.600;7.318;2023-08-30T09:02:53;100370.79;;;17.29;88.92
47811;BME280;33575;52.600;7.318;2023-08-30T09:05:23;100371.68;;;17.29;89.10
47811;BME280;33575;52.600;7.318;2023-08-30T09:07:54;100372.06;;;17.30;89.31
47811;BME280;33575;52.600;7.318;2023-08-30T09:10:24;100372.86;;;17.32;89.02
47811;BME280;33575;52.600;7.318;2023-08-30T09:12:54;100373.80;;;17.31;89.02
47811;BME280;33575;52.600;7.318;2023-08-30T09:15:30;100368.58;;;17.34;89.30
47811;BME280;33575;52.600;7.318;2023-08-30T09:17:55;100361.82;;;17.33;88.89
47811;BME280;33575;52.600;7.318;2023-08-30T09:20:26;100357.49;;;17.33;89.02
47811;BME280;33575;52.600;7.318;2023-08-30T09:22:56;100358.20;;;17.36;89.03
47811;BME280;33575;52.600;7.318;2023-08-30T09:25:27;100354.60;;;17.37;88.97
47811;BME280;33575;52.600;7.318;2023-08-30T09:27:57;100355.13;;;17.38;88.91
47811;BME280;33575;52.600;7.318;2023-08-30T09:30:27;100356.63;;;17.41;89.08
47811;BME280;33575;52.600;7.318;2023-08-30T09:33:01;100351.84;;;17.35;89.17
47811;BME280;33575;52.600;7.318;2023-08-30T09:35:28;100353.00;;;17.24;88.03
47811;BME280;33575;52.600;7.318;2023-08-30T09:37:58;100354.78;;;17.29;88.74
47811;BME280;33575;52.600;7.318;2023-08-30T09:40:29;100350.54;;;17.28;89.07
47811;BME280;33575;52.600;7.318;2023-08-30T09:43:05;100346.69;;;17.33;88.82
47811;BME280;33575;52.600;7.318;2023-08-30T09:45:30;100346.32;;;17.27;88.45
47811;BME280;33575;52.600;7.318;2023-08-30T09:48:01;100345.05;;;17.32;88.64
47811;BME280;33575;52.600;7.318;2023-08-30T09:50:33;100341.25;;;17.26;88.42
47811;BME280;33575;52.600;7.318;2023-08-30T09:53:04;100336.13;;;17.30;87.90
47811;BME280;33575;52.600;7.318;2023-08-30T09:55:31;100335.27;;;17.35;88.01
47811;BME280;33575;52.600;7.318;2023-08-30T09:58:02;100335.50;;;17.29;87.76
47811;BME280;33575;52.600;7.318;2023-08-30T10:00:33;100333.37;;;17.33;87.19
47811;BME280;33575;52.600;7.318;2023-08-30T10:03:07;100332.95;;;17.25;87.42
47811;BME280;33575;52.600;7.318;2023-08-30T10:05:33;100337.52;;;17.28;87.54
47811;BME280;33575;52.600;7.318;2023-08-30T10:08:04;100342.21;;;17.19;86.44
47811;BME280;33575;52.600;7.318;2023-08-30T10:10:34;100342.69;;;17.11;86.84
47811;BME280;33575;52.600;7.318;2023-08-30T10:13:09;100340.77;;;17.10;87.81
47811;BME280;33575;52.600;7.318;2023-08-30T10:15:35;100342.99;;;17.01;88.90
47811;BME280;33575;52.600;7.318;2023-08-30T10:18:05;100342.57;;;16.91;89.41
47811;BME280;33575;52.600;7.318;2023-08-30T10:20:37;100343.46;;;16.90;89.36
47811;BME280;33575;52.600;7.318;2023-08-30T10:23:05;100345.12;;;16.92;89.96
47811;BME280;33575;52.600;7.318;2023-08-30T10:25:35;100343.29;;;16.84;90.29
47811;BME280;33575;52.600;7.318;2023-08-30T10:28:06;100341.30;;;16.76;92.10
47811;BME280;33575;52.600;7.318;2023-08-30T10:30:36;100343.30;;;16.85;91.60
47811;BME280;33575;52.600;7.318;2023-08-30T10:33:11;100338.85;;;16.88;92.74
47811;BME280;33575;52.600;7.318;2023-08-30T10:38:07;100333.75;;;16.92;92.94
47811;BME280;33575;52.600;7.318;2023-08-30T10:40:45;100339.12;;;16.88;94.29
47811;BME280;33575;52.600;7.318;2023-08-30T10:43:07;100333.94;;;16.94;92.59
47811;BME280;33575;52.600;7.318;2023-08-30T10:45:38;100334.20;;;16.99;93.68
47811;BME280;33575;52.600;7.318;2023-08-30T10:48:08;100330.15;;;16.97;93.63
47811;BME280;33575;52.600;7.318;2023-08-30T10:50:39;100326.24;;;16.96;95.53
47811;BME280;33575;52.600;7.318;2023-08-30T10:53:13;100318.51;;;16.93;93.70
47811;BME280;33575;52.600;7.318;2023-08-30T10:55:40;100315.19;;;16.99;93.36
47811;BME280;33575;52.600;7.318;2023-08-30T10:58:14;100314.64;;;16.90;94.63
47811;BME280;33575;52.600;7.318;2023-08-30T11:00:41;100311.17;;;16.98;93.09
47811;BME280;33575;52.600;7.318;2023-08-30T11:03:12;100303.75;;;17.04;93.92
47811;BME280;33575;52.600;7.318;2023-08-30T11:05:41;100302.54;;;17.12;93.71
47811;BME280;33575;52.600;7.318;2023-08-30T11:08:11;100303.48;;;17.16;93.31
47811;BME280;33575;52.600;7.318;2023-08-30T11:10:42;100299.44;;;17.12;94.21
47811;BME280;33575;52.600;7.318;2023-08-30T11:13:14;100297.71;;;17.08;93.89
47811;BME280;33575;52.600;7.318;2023-08-30T11:15:43;100297.55;;;17.07;93.13
47811;BME280;33575;52.600;7.318;2023-08-30T11:18:18;100282.85;;;17.08;93.43
47811;BME280;33575;52.600;7.318;2023-08-30T11:20:44;100292.59;;;17.13;93.32
47811;BME280;33575;52.600;7.318;2023-08-30T11:23:15;100293.34;;;17.15;93.71
47811;BME280;33575;52.600;7.318;2023-08-30T11:25:50;100292.83;;;17.16;93.69
47811;BME280;33575;52.600;7.318;2023-08-30T11:28:22;100285.75;;;17.18;93.60
47811;BME280;33575;52.600;7.318;2023-08-30T11:30:46;100286.67;;;17.23;93.55
47811;BME280;33575;52.600;7.318;2023-08-30T11:33:17;100289.11;;;17.26;93.40
47811;BME280;33575;52.600;7.318;2023-08-30T11:35:49;100287.23;;;17.23;94.18
47811;BME280;33575;52.600;7.318;2023-08-30T11:38:18;100282.36;;;17.26;93.89
47811;BME280;33575;52.600;7.318;2023-08-30T11:40:49;100276.17;;;17.26;94.23
47811;BME280;33575;52.600;7.318;2023-08-30T11:43:19;100275.13;;;17.31;94.13
47811;BME280;33575;52.600;7.318;2023-08-30T11:45:55;100269.08;;;17.33;95.43
47811;BME280;33575;52.600;7.318;2023-08-30T11:48:19;100267.41;;;17.32;94.99
47811;BME280;33575;52.600;7.318;2023-08-30T11:50:50;100261.70;;;17.33;94.47
47811;BME280;33575;52.600;7.318;2023-08-30T11:53:19;100261.18;;;17.32;94.89
47811;BME280;33575;52.600;7.318;2023-08-30T11:55:50;100254.38;;;17.20;96.47
47811;BME280;33575;52.600;7.318;2023-08-30T11:58:20;100252.01;;;17.25;95.63
47811;BME280;33575;52.600;7.318;2023-08-30T12:00:51;100247.72;;;17.28;95.72
47811;BME280;33575;52.600;7.318;2023-08-30T12:03:21;100246.09;;;17.26;94.79
47811;BME280;33575;52.600;7.318;2023-08-30T12:05:51;100250.68;;;17.20;94.36
47811;BME280;33575;52.600;7.318;2023-08-30T12:08:23;100246.61;;;17.09;94.19
47811;BME280;33575;52.600;7.318;2023-08-30T12:10:52;100249.34;;;17.02;94.69
47811;BME280;33575;52.600;7.318;2023-08-30T12:13:22;100252.32;;;17.03;94.82
47811;BME280;33575;52.600;7.318;2023-08-30T12:15:52;100239.82;;;17.00;94.23
47811;BME280;33575;52.600;7.318;2023-08-30T12:18:23;100238.45;;;16.87;95.01
47811;BME280;33575;52.600;7.318;2023-08-30T12:20:54;100237.39;;;16.87;94.31
47811;BME280;33575;52.600;7.318;2023-08-30T12:23:24;100237.48;;;16.83;94.25
47811;BME280;33575;52.600;7.318;2023-08-30T12:25:58;100228.68;;;16.79;94.50
47811;BME280;33575;52.600;7.318;2023-08-30T12:28:25;100228.42;;;16.75;95.62
47811;BME280;33575;52.600;7.318;2023-08-30T12:30:55;100227.41;;;16.74;95.69
47811;BME280;33575;52.600;7.318;2023-08-30T12:33:25;100221.44;;;16.74;96.50
47811;BME280;33575;52.600;7.318;2023-08-30T12:35:56;100222.28;;;16.63;98.17
47811;BME280;33575;52.600;7.318;2023-08-30T12:38:26;100219.18;;;16.65;97.61
47811;BME280;33575;52.600;7.318;2023-08-30T12:40:56;100218.44;;;16.61;97.80
47811;BME280;33575;52.600;7.318;2023-08-30T12:43:26;100220.53;;;16.62;97.48
47811;BME280;33575;52.600;7.318;2023-08-30T12:45:57;100224.37;;;16.61;98.21
47811;BME280;33575;52.600;7.318;2023-08-30T12:48:27;100220.66;;;16.50;99.24
47811;BME280;33575;52.600;7.318;2023-08-30T12:50:58;100218.96;;;16.33;99.37
47811;BME280;33575;52.600;7.318;2023-08-30T12:53:28;100215.55;;;16.39;99.41
47811;BME280;33575;52.600;7.318;2023-08-30T12:55:58;100215.47;;;16.45;99.52
47811;BME280;33575;52.600;7.318;2023-08-30T12:58:29;100217.11;;;16.52;98.48
47811;BME280;33575;52.600;7.318;2023-08-30T13:00:59;100215.63;;;16.53;99.34
47811;BME280;33575;52.600;7.318;2023-08-30T13:03:30;100216.03;;;16.62;99.25
47811;BME280;33575;52.600;7.318;2023-08-30T13:06:00;100209.65;;;16.68;99.82
47811;BME280;33575;52.600;7.318;2023-08-30T13:08:31;100210.09;;;16.68;100.00
47811;BME280;33575;52.600;7.318;2023-08-30T13:11:01;100204.93;;;16.70;100.00
47811;BME280;33575;52.600;7.318;2023-08-30T13:13:31;100200.66;;;16.61;100.00
47811;BME280;33575;52.600;7.318;2023-08-30T13:16:02;100203.08;;;16.66;100.00
47811;BME280;33575;52.600;7.318;2023-08-30T13:18:32;100205.08;;;16.69;100.00
47811;BME280;33575;52.600;7.318;2023-08-30T13:21:03;100206.12;;;16.68;100.00